Time;durP1;ratioP1;P1;durP2;ratioP2;P2;SDS_P1;SDS_P2;PMS_P1;PMS_P2;Temp;Humidity;BMP_temperature;BMP_pressure;BME280_temperature;BME280_humidity;BME280_pressure;Samples;Min_cycle;Max_cycle;Signal;HPM_P1;HPM_P2
2021/12/25 00:02:08;;;;;;;11.68;6.85;;;7.70;58.60;;;;;;5170770;27;34118;-76
2021/12/25 00:04:34;;;;;;;10.82;5.97;;;7.70;58.50;;;;;;5188670;27;34549;-76
2021/12/25 00:07:00;;;;;;;8.70;5.25;;;7.70;58.60;;;;;;5188322;27;35775;-76
2021/12/25 00:09:26;;;;;;;6.78;5.55;;;7.70;58.60;;;;;;5207744;27;34210;-77
2021/12/25 00:11:53;;;;;;;7.65;5.05;;;7.70;58.50;;;;;;5188255;27;34410;-76
2021/12/25 00:14:22;;;;;;;8.88;5.53;;;7.70;58.60;;;;;;5187817;27;34463;-76
2021/12/25 00:16:48;;;;;;;6.75;5.40;;;7.70;58.60;;;;;;5188258;27;36774;-76
2021/12/25 00:19:14;;;;;;;8.15;4.95;;;7.70;58.50;;;;;;5188046;27;34086;-76
2021/12/25 00:21:41;;;;;;;8.73;5.57;;;7.70;58.50;;;;;;5188876;27;34156;-76
2021/12/25 00:24:07;;;;;;;11.18;6.20;;;7.70;58.60;;;;;;5191968;27;34503;-76
2021/12/25 00:26:49;;;;;;;14.60;5.35;;;7.70;58.50;;;;;;5191997;27;35333;-76
2021/12/25 00:29:52;;;;;;;11.98;4.93;;;7.70;58.50;;;;;;5191608;27;34234;-76
2021/12/25 00:34:43;;;;;;;12.07;5.43;;;7.60;58.50;;;;;;5170418;27;34270;-76
2021/12/25 00:37:09;;;;;;;8.50;5.05;;;7.60;58.60;;;;;;5187162;27;35528;-76
2021/12/25 00:39:35;;;;;;;9.73;5.22;;;7.60;58.60;;;;;;5155027;27;34402;-76
2021/12/25 00:42:03;;;;;;;9.77;6.25;;;7.60;58.60;;;;;;5170744;27;34201;-76
2021/12/25 00:44:29;;;;;;;10.57;5.28;;;7.60;58.60;;;;;;5152955;27;34426;-76
2021/12/25 00:46:55;;;;;;;8.10;5.35;;;7.60;58.60;;;;;;5189101;27;34988;-76
2021/12/25 00:49:22;;;;;;;8.52;5.85;;;7.60;58.60;;;;;;5153248;27;34278;-76
2021/12/25 00:51:48;;;;;;;10.82;5.65;;;7.60;58.60;;;;;;5170644;27;34220;-76
2021/12/25 00:54:15;;;;;;;10.15;5.72;;;7.60;58.60;;;;;;5135531;27;34175;-76
2021/12/25 00:56:42;;;;;;;9.27;5.90;;;7.60;58.60;;;;;;5170509;27;35673;-76
2021/12/25 00:59:08;;;;;;;11.10;6.05;;;7.60;58.60;;;;;;5189251;27;34232;-76
2021/12/25 01:01:35;;;;;;;15.57;5.35;;;7.70;58.70;;;;;;5170040;27;34197;-76
2021/12/25 01:04:02;;;;;;;14.88;4.57;;;7.70;58.70;;;;;;5170526;27;34614;-76
2021/12/25 01:06:28;;;;;;;11.85;4.53;;;7.60;58.50;;;;;;5169278;27;35550;-76
2021/12/25 01:08:54;;;;;;;8.57;4.50;;;7.60;58.60;;;;;;5170515;27;34374;-76
2021/12/25 01:11:23;;;;;;;7.90;5.10;;;7.60;58.60;;;;;;5169892;27;34464;-76
2021/12/25 01:13:57;;;;;;;8.32;5.03;;;7.60;58.70;;;;;;5169996;27;34104;-77
2021/12/25 01:16:57;;;;;;;6.28;4.50;;;7.60;58.70;;;;;;5171313;27;34416;-77
2021/12/25 01:24:47;;;;;;;5.80;4.38;;;7.60;58.80;;;;;;5176702;27;34392;-77
2021/12/25 01:30:15;;;;;;;9.52;5.85;;;7.60;58.70;;;;;;5173327;27;34170;-77
2021/12/25 01:38:24;;;;;;;7.75;5.13;;;7.60;58.80;;;;;;5193470;27;34128;-77
2021/12/25 01:48:54;;;;;;;9.32;5.85;;;7.70;58.90;;;;;;5209652;27;34105;-76
2021/12/25 01:51:21;;;;;;;7.03;4.72;;;7.70;58.90;;;;;;5191096;27;34211;-76
2021/12/25 01:53:47;;;;;;;6.38;4.70;;;7.70;58.90;;;;;;5173516;27;34482;-77
2021/12/25 01:56:14;;;;;;;6.95;4.88;;;7.70;58.90;;;;;;5191043;27;34272;-76
2021/12/25 01:58:40;;;;;;;7.85;4.88;;;7.70;58.90;;;;;;5173188;27;34684;-77
2021/12/25 02:01:09;;;;;;;7.60;4.72;;;7.60;58.90;;;;;;5209585;27;34349;-76
2021/12/25 02:03:37;;;;;;;6.65;4.78;;;7.70;59.00;;;;;;5155522;27;34425;-76
2021/12/25 02:06:08;;;;;;;5.95;3.83;;;7.70;59.00;;;;;;5190695;27;34464;-76
2021/12/25 02:08:34;;;;;;;6.28;4.10;;;7.70;58.90;;;;;;5155952;27;36516;-76
2021/12/25 02:11:00;;;;;;;6.18;3.85;;;7.70;58.90;;;;;;5190309;27;34194;-76
2021/12/25 02:13:27;;;;;;;5.18;4.22;;;7.70;58.90;;;;;;5209103;27;34220;-76
2021/12/25 02:15:55;;;;;;;8.98;4.18;;;7.70;58.90;;;;;;5209381;27;34227;-76
2021/12/25 02:18:28;;;;;;;5.20;4.30;;;7.70;58.90;;;;;;5189574;27;35563;-77
2021/12/25 02:21:17;;;;;;;6.47;4.18;;;7.70;58.90;;;;;;5190099;27;34148;-76
2021/12/25 02:23:40;;;;;;;4.68;3.28;;;7.70;58.90;;;;;;5193388;27;34351;-76
2021/12/25 02:26:06;;;;;;;4.85;3.38;;;7.70;59.00;;;;;;5132692;27;34274;-76
2021/12/25 02:28:33;;;;;;;4.65;3.47;;;7.70;59.00;;;;;;5183428;27;35789;-76
2021/12/25 02:31:05;;;;;;;5.07;3.28;;;7.70;59.00;;;;;;5172550;27;34077;-76
2021/12/25 02:33:31;;;;;;;4.30;2.85;;;7.70;59.00;;;;;;5172759;27;34181;-76
2021/12/25 02:35:58;;;;;;;4.07;3.15;;;7.70;59.00;;;;;;5155168;27;34060;-76
2021/12/25 02:38:25;;;;;;;5.20;2.80;;;7.80;59.00;;;;;;5189055;27;35904;-76
2021/12/25 02:40:52;;;;;;;3.80;2.90;;;7.70;59.00;;;;;;5209286;27;34138;-76
2021/12/25 02:43:18;;;;;;;2.67;2.42;;;7.80;59.10;;;;;;5190141;27;34322;-76
2021/12/25 02:45:44;;;;;;;3.63;2.60;;;7.80;59.10;;;;;;5189143;27;34553;-76
2021/12/25 02:48:15;;;;;;;3.50;2.55;;;7.80;59.10;;;;;;5189797;27;35733;-76
2021/12/25 02:50:42;;;;;;;5.05;2.78;;;7.80;59.10;;;;;;5173402;27;34300;-76
2021/12/25 02:53:10;;;;;;;2.60;2.40;;;7.80;59.10;;;;;;5209084;27;34283;-76
2021/12/25 02:55:38;;;;;;;4.03;3.00;;;7.80;59.00;;;;;;5190229;27;34838;-79
2021/12/25 02:58:05;;;;;;;2.70;2.40;;;7.80;58.90;;;;;;5189953;27;36084;-76
2021/12/25 03:00:35;;;;;;;4.13;3.10;;;7.80;58.90;;;;;;5189938;27;34341;-76
2021/12/25 03:03:04;;;;;;;4.55;3.00;;;7.80;58.90;;;;;;5172938;27;34284;-76
2021/12/25 03:05:31;;;;;;;6.40;2.80;;;7.90;59.00;;;;;;5189743;27;34425;-76
2021/12/25 03:07:58;;;;;;;3.20;2.90;;;7.90;59.00;;;;;;5189736;27;36776;-76
2021/12/25 03:10:24;;;;;;;3.20;2.90;;;7.90;58.90;;;;;;5189561;27;34169;-76
2021/12/25 03:12:54;;;;;;;2.78;2.58;;;7.90;59.00;;;;;;5171984;27;34271;-76
2021/12/25 03:15:40;;;;;;;4.75;2.78;;;7.90;58.90;;;;;;5207936;27;34120;-76
2021/12/25 03:18:07;;;;;;;3.58;2.40;;;7.90;59.00;;;;;;5189961;27;36642;-76
2021/12/25 03:20:34;;;;;;;3.92;2.45;;;7.90;59.00;;;;;;5208062;27;34296;-76
2021/12/25 03:23:00;;;;;;;3.33;2.40;;;7.90;59.00;;;;;;5189228;27;34187;-76
2021/12/25 03:25:26;;;;;;;3.17;2.55;;;8.00;59.00;;;;;;5189564;27;34140;-76
2021/12/25 03:27:54;;;;;;;3.10;2.67;;;8.00;59.00;;;;;;5189043;27;36076;-76
2021/12/25 03:30:22;;;;;;;4.05;2.88;;;8.00;59.00;;;;;;5190407;27;34163;-76
2021/12/25 03:32:48;;;;;;;3.20;2.53;;;7.90;59.10;;;;;;5172026;27;34260;-76
2021/12/25 03:35:15;;;;;;;3.15;2.55;;;8.00;59.10;;;;;;5189069;27;34309;-76
2021/12/25 03:37:41;;;;;;;2.50;2.22;;;8.00;59.20;;;;;;5188774;27;35795;-76
2021/12/25 03:40:07;;;;;;;2.75;2.33;;;8.00;59.10;;;;;;5182225;27;34320;-76
2021/12/25 03:42:33;;;;;;;2.50;2.30;;;8.00;59.20;;;;;;5182333;27;34167;-76
2021/12/25 03:45:00;;;;;;;2.22;2.03;;;8.00;59.10;;;;;;5189330;27;34422;-76
2021/12/25 03:47:33;;;;;;;2.65;2.45;;;8.00;59.10;;;;;;5188734;27;35741;-76
2021/12/25 03:58:09;;;;;;;2.85;2.10;;;8.00;59.00;;;;;;5211705;27;34161;-76
2021/12/25 04:00:36;;;;;;;3.00;2.08;;;8.00;59.00;;;;;;5192356;27;34185;-76
2021/12/25 04:03:08;;;;;;;4.18;1.98;;;8.00;59.00;;;;;;5211768;27;34159;-76
2021/12/25 04:05:37;;;;;;;3.95;1.80;;;8.00;59.00;;;;;;5192792;27;34394;-76
2021/12/25 04:08:07;;;;;;;5.45;2.20;;;8.00;59.00;;;;;;5192815;27;36377;-76
2021/12/25 04:10:38;;;;;;;2.55;2.20;;;8.00;58.90;;;;;;5192709;27;34314;-76
2021/12/25 04:13:07;;;;;;;8.13;1.80;;;8.10;59.00;;;;;;5175531;27;34373;-76
2021/12/25 04:15:34;;;;;;;6.05;2.08;;;8.00;58.90;;;;;;5192513;27;34109;-77
2021/12/25 04:18:00;;;;;;;3.38;2.08;;;8.00;58.90;;;;;;5192039;27;35576;-76
2021/12/25 04:20:27;;;;;;;3.05;1.75;;;8.00;59.00;;;;;;5191991;27;34482;-76
2021/12/25 04:23:00;;;;;;;3.22;1.52;;;8.00;59.00;;;;;;5192455;27;34448;-76
2021/12/25 04:25:30;;;;;;;3.08;2.10;;;8.00;58.90;;;;;;5192252;27;34192;-76
2021/12/25 04:28:01;;;;;;;2.67;2.05;;;8.00;58.90;;;;;;5192047;27;36436;-76
2021/12/25 05:03:04;;;;;;;2.15;1.90;;;7.90;59.10;;;;;;5210773;27;34433;-76
2021/12/25 05:05:31;;;;;;;2.72;2.00;;;7.90;59.10;;;;;;5191903;27;34317;-76
2021/12/25 05:07:57;;;;;;;2.10;1.80;;;7.90;59.10;;;;;;5174511;27;34317;-76
2021/12/25 05:10:23;;;;;;;1.63;1.52;;;7.90;59.10;;;;;;5174082;27;35864;-77
2021/12/25 05:12:49;;;;;;;1.90;1.80;;;7.90;59.10;;;;;;5174110;27;34247;-76
2021/12/25 05:15:15;;;;;;;1.92;1.65;;;7.90;59.00;;;;;;5191026;27;34398;-77
2021/12/25 05:17:41;;;;;;;2.25;2.03;;;7.90;59.10;;;;;;5191471;27;34729;-77
2021/12/25 05:20:08;;;;;;;2.22;1.85;;;7.90;59.10;;;;;;5191639;27;36682;-77
2021/12/25 05:22:34;;;;;;;1.75;1.65;;;7.90;59.20;;;;;;5174136;27;34287;-76
2021/12/25 05:25:01;;;;;;;3.33;1.90;;;7.90;59.20;;;;;;5191708;27;34192;-76
2021/12/25 05:27:27;;;;;;;2.00;1.80;;;7.90;59.20;;;;;;5210337;27;34418;-77
2021/12/25 05:29:53;;;;;;;2.58;1.73;;;7.90;59.10;;;;;;5174202;27;35685;-77
2021/12/25 05:32:20;;;;;;;1.63;1.50;;;7.90;59.10;;;;;;5191620;27;34312;-77
2021/12/25 05:34:46;;;;;;;2.13;1.80;;;7.90;59.10;;;;;;5191097;27;34298;-76
2021/12/25 05:37:14;;;;;;;1.65;1.55;;;7.90;59.10;;;;;;5191529;27;34285;-77
2021/12/25 05:39:42;;;;;;;1.60;1.50;;;7.90;59.10;;;;;;5151538;27;35634;-77
2021/12/25 05:42:09;;;;;;;2.28;2.08;;;7.90;59.10;;;;;;5169700;27;34465;-76
2021/12/25 05:44:35;;;;;;;1.75;1.65;;;7.90;59.10;;;;;;5169823;27;34085;-76
2021/12/25 05:47:01;;;;;;;2.83;1.80;;;7.90;59.20;;;;;;5170557;27;34316;-76
2021/12/25 05:49:27;;;;;;;2.30;1.83;;;7.90;59.10;;;;;;5169705;27;36369;-76
2021/12/25 05:51:53;;;;;;;2.38;1.60;;;7.90;59.10;;;;;;5169485;27;34212;-76
2021/12/25 05:54:19;;;;;;;6.10;1.95;;;7.90;59.10;;;;;;5188230;27;34266;-77
2021/12/25 05:56:45;;;;;;;1.88;1.42;;;7.90;59.10;;;;;;5169244;27;34256;-77
2021/12/25 05:59:11;;;;;;;2.78;2.20;;;8.00;59.10;;;;;;5169377;27;36201;-77
2021/12/25 06:01:39;;;;;;;2.90;2.17;;;8.00;59.10;;;;;;5169596;27;34173;-77
2021/12/25 06:04:05;;;;;;;1.95;1.80;;;8.00;59.10;;;;;;5188354;27;34161;-77
2021/12/25 06:06:31;;;;;;;3.38;1.70;;;8.00;59.10;;;;;;5168811;27;34216;-77
2021/12/25 06:08:58;;;;;;;2.92;1.80;;;8.00;59.10;;;;;;5169523;27;35847;-76
2021/12/25 06:11:24;;;;;;;2.50;2.10;;;8.00;59.10;;;;;;5187899;27;34348;-77
2021/12/25 06:14:08;;;;;;;2.13;1.90;;;8.00;59.00;;;;;;5169258;27;34185;-77
2021/12/25 06:16:35;;;;;;;2.13;1.83;;;8.00;59.10;;;;;;5169330;27;34286;-77
2021/12/25 06:19:01;;;;;;;1.70;1.60;;;8.00;59.10;;;;;;5168075;27;35943;-76
2021/12/25 06:21:27;;;;;;;2.78;2.15;;;8.00;59.00;;;;;;5187847;27;34483;-77
2021/12/25 06:23:53;;;;;;;4.18;1.88;;;7.90;59.00;;;;;;5169126;27;34221;-77
2021/12/25 06:26:20;;;;;;;4.30;2.10;;;8.00;59.00;;;;;;5168837;27;34100;-77
2021/12/25 06:28:46;;;;;;;5.97;1.80;;;8.00;59.00;;;;;;5168879;27;35665;-77
2021/12/25 06:31:12;;;;;;;6.97;1.73;;;8.00;59.00;;;;;;5168939;27;34260;-76
2021/12/25 06:33:38;;;;;;;5.25;1.98;;;7.90;59.00;;;;;;5151375;27;34345;-77
2021/12/25 06:36:04;;;;;;;1.73;1.63;;;8.00;59.00;;;;;;5169036;27;34212;-77
2021/12/25 06:38:30;;;;;;;2.13;1.92;;;8.00;59.00;;;;;;5167825;27;36030;-77
2021/12/25 06:40:57;;;;;;;1.65;1.55;;;8.00;59.00;;;;;;5133869;27;34150;-77
2021/12/25 06:43:23;;;;;;;3.15;1.73;;;8.00;59.00;;;;;;5168796;27;34111;-77
2021/12/25 06:45:49;;;;;;;2.10;1.90;;;8.00;58.90;;;;;;5133973;27;34089;-77
2021/12/25 06:48:16;;;;;;;3.55;1.95;;;8.00;59.00;;;;;;5187206;27;34214;-77
2021/12/25 06:50:42;;;;;;;7.18;2.15;;;8.00;59.00;;;;;;5168311;27;34226;-76
2021/12/25 06:53:08;;;;;;;2.22;2.03;;;7.90;59.00;;;;;;5169064;27;34496;-77
2021/12/25 06:55:34;;;;;;;2.55;2.10;;;7.90;59.00;;;;;;5168899;27;34304;-77
2021/12/25 06:58:00;;;;;;;3.25;1.80;;;7.90;59.00;;;;;;5186643;27;34600;-77
2021/12/25 07:00:27;;;;;;;2.22;1.65;;;7.90;59.00;;;;;;5150637;27;34190;-76
2021/12/25 07:02:55;;;;;;;2.67;1.90;;;7.90;59.00;;;;;;5168524;27;34404;-76
2021/12/25 07:05:21;;;;;;;2.50;1.83;;;7.90;59.10;;;;;;5187051;27;34140;-77
2021/12/25 07:07:48;;;;;;;6.22;2.10;;;7.80;59.00;;;;;;5187172;27;34168;-76
2021/12/25 07:10:14;;;;;;;2.20;1.95;;;7.80;59.00;;;;;;5168426;27;34172;-77
2021/12/25 07:12:46;;;;;;;3.22;1.70;;;7.80;59.00;;;;;;5168308;27;34213;-76
2021/12/25 07:15:12;;;;;;;2.10;1.90;;;7.80;59.10;;;;;;5168685;27;34241;-76
2021/12/25 07:17:39;;;;;;;1.90;1.80;;;7.80;59.10;;;;;;5168023;27;36523;-76
2021/12/25 07:20:06;;;;;;;4.88;2.10;;;7.80;59.10;;;;;;5151130;27;34226;-76
2021/12/25 07:22:32;;;;;;;2.30;1.85;;;7.80;59.10;;;;;;5150307;27;34337;-76
2021/12/25 07:24:58;;;;;;;3.38;1.92;;;7.80;59.10;;;;;;5168682;27;34382;-76
2021/12/25 07:27:24;;;;;;;2.85;2.15;;;7.80;59.10;;;;;;5186837;27;34927;-76
2021/12/25 07:29:50;;;;;;;3.35;2.33;;;7.80;59.10;;;;;;5167670;27;34280;-76
2021/12/25 07:32:16;;;;;;;3.30;2.60;;;7.80;59.10;;;;;;5167434;27;34366;-76
2021/12/25 07:34:45;;;;;;;5.05;3.20;;;7.80;59.90;;;;;;5186626;27;34128;-76
2021/12/25 07:37:13;;;;;;;7.03;3.40;;;7.80;59.20;;;;;;5186165;27;34336;-76
2021/12/25 07:39:41;;;;;;;3.85;3.30;;;7.80;59.40;;;;;;5186080;27;34322;-76
2021/12/25 07:42:08;;;;;;;5.18;2.92;;;7.80;59.40;;;;;;5172434;27;34162;-76
2021/12/25 07:44:34;;;;;;;3.53;2.65;;;7.80;59.30;;;;;;5188805;27;34263;-76
2021/12/25 07:47:00;;;;;;;9.95;3.30;;;7.80;59.20;;;;;;5188784;27;36068;-76
2021/12/25 07:49:27;;;;;;;4.15;3.22;;;7.80;59.20;;;;;;5188647;27;34174;-76
2021/12/25 07:51:53;;;;;;;4.57;3.83;;;7.80;59.20;;;;;;5189155;27;34388;-76
2021/12/25 07:54:19;;;;;;;5.38;4.22;;;7.90;59.30;;;;;;5207623;27;34303;-76
2021/12/25 07:56:46;;;;;;;6.93;4.28;;;7.90;59.30;;;;;;5188573;27;36302;-76
2021/12/25 07:59:12;;;;;;;8.07;3.92;;;7.90;59.40;;;;;;5188821;27;34109;-76
2021/12/25 08:01:38;;;;;;;4.68;3.75;;;7.90;59.40;;;;;;5207549;27;34123;-77
2021/12/25 08:04:04;;;;;;;4.63;3.53;;;7.90;59.40;;;;;;5188277;27;34437;-76
2021/12/25 08:06:31;;;;;;;6.53;3.85;;;7.90;59.30;;;;;;5170613;27;35936;-76
2021/12/25 08:09:00;;;;;;;4.38;3.22;;;7.90;59.30;;;;;;5207276;27;34238;-76
2021/12/25 08:11:27;;;;;;;5.47;3.50;;;7.90;59.30;;;;;;5171203;27;34066;-76
2021/12/25 08:13:54;;;;;;;4.82;2.70;;;7.90;59.20;;;;;;5207504;27;34144;-76
2021/12/25 08:16:20;;;;;;;4.53;2.92;;;8.00;59.90;;;;;;5207005;27;34234;-77
2021/12/25 08:18:46;;;;;;;4.13;2.85;;;8.00;59.20;;;;;;5207487;27;34329;-76
2021/12/25 08:21:13;;;;;;;5.28;3.17;;;8.00;59.20;;;;;;5188919;27;34418;-76
2021/12/25 08:23:39;;;;;;;4.18;2.90;;;8.00;59.10;;;;;;5188473;27;34308;-76
2021/12/25 08:26:07;;;;;;;4.88;3.20;;;8.00;59.10;;;;;;5188887;27;34554;-76
2021/12/25 08:28:33;;;;;;;4.13;2.65;;;8.10;59.20;;;;;;5188375;27;34306;-76
2021/12/25 08:31:00;;;;;;;3.53;2.65;;;8.10;59.20;;;;;;5188474;27;34299;-76
2021/12/25 08:33:26;;;;;;;3.50;2.65;;;8.10;59.10;;;;;;5188038;27;34215;-76
2021/12/25 08:35:52;;;;;;;4.50;2.38;;;8.20;59.10;;;;;;5187748;27;36009;-76
2021/12/25 08:38:18;;;;;;;4.88;3.17;;;8.20;59.10;;;;;;5181387;27;34167;-76
2021/12/25 08:40:44;;;;;;;3.58;2.80;;;8.20;59.10;;;;;;5166549;27;34259;-76
2021/12/25 08:43:11;;;;;;;4.75;3.20;;;8.20;59.10;;;;;;5168476;27;34091;-76
2021/12/25 08:45:49;;;;;;;4.13;3.08;;;8.20;59.10;;;;;;5170015;27;36538;-76
2021/12/25 08:48:18;;;;;;;5.13;3.50;;;8.20;59.10;;;;;;5170816;27;34244;-76
2021/12/25 08:51:05;;;;;;;5.30;3.75;;;8.20;59.20;;;;;;5153512;27;34268;-76
2021/12/25 08:53:32;;;;;;;5.47;3.95;;;8.20;59.10;;;;;;5173558;27;34211;-76
2021/12/25 08:55:58;;;;;;;6.00;4.32;;;8.20;59.20;;;;;;5189482;27;35062;-76
2021/12/25 08:58:27;;;;;;;6.65;4.25;;;8.30;59.30;;;;;;5170480;27;34286;-76
2021/12/25 09:00:57;;;;;;;7.18;4.97;;;8.30;59.30;;;;;;5163128;27;34373;-76
2021/12/25 09:03:25;;;;;;;9.70;5.75;;;8.40;59.20;;;;;;5156699;27;34325;-76
2021/12/25 09:05:54;;;;;;;6.95;5.18;;;8.40;59.20;;;;;;5152973;27;35638;-76
2021/12/25 09:08:20;;;;;;;7.25;4.88;;;8.40;59.20;;;;;;5170420;27;34160;-76
2021/12/25 09:10:46;;;;;;;6.72;4.85;;;8.40;59.20;;;;;;5189267;27;34062;-76
2021/12/25 09:13:12;;;;;;;7.82;4.82;;;8.50;59.30;;;;;;5152829;27;34443;-76
2021/12/25 09:15:38;;;;;;;9.98;5.88;;;8.50;59.30;;;;;;5169897;27;35592;-76
2021/12/25 09:18:05;;;;;;;7.22;5.18;;;8.50;59.20;;;;;;5188948;27;34286;-76
2021/12/25 09:20:31;;;;;;;8.10;5.30;;;8.60;59.20;;;;;;5169743;27;34413;-76
2021/12/25 09:22:58;;;;;;;7.05;5.13;;;8.70;59.30;;;;;;5169481;27;34495;-76
2021/12/25 09:25:26;;;;;;;5.55;4.05;;;8.70;59.20;;;;;;5169318;27;35834;-76
2021/12/25 09:27:52;;;;;;;6.57;4.55;;;8.80;59.10;;;;;;5169984;27;34168;-76
2021/12/25 09:30:21;;;;;;;6.65;4.78;;;8.80;59.10;;;;;;5169751;27;34252;-76
2021/12/25 09:32:47;;;;;;;5.55;4.18;;;8.90;59.10;;;;;;5152375;27;34598;-76
2021/12/25 09:35:14;;;;;;;7.63;4.50;;;8.90;59.10;;;;;;5169299;27;35828;-76
2021/12/25 09:37:40;;;;;;;7.18;4.65;;;9.00;59.10;;;;;;5170637;27;34091;-76
2021/12/25 09:40:09;;;;;;;5.85;4.07;;;9.00;59.10;;;;;;5190805;27;34163;-76
2021/12/25 09:42:35;;;;;;;7.28;4.15;;;9.00;59.30;;;;;;5155731;27;34549;-76
2021/12/25 09:45:01;;;;;;;5.40;4.13;;;9.10;59.20;;;;;;5190536;27;35716;-76
2021/12/25 09:47:28;;;;;;;6.22;4.07;;;9.10;59.10;;;;;;5190456;27;34327;-76
2021/12/25 09:49:54;;;;;;;6.22;4.40;;;9.20;59.10;;;;;;5190825;27;34407;-76
2021/12/25 09:52:20;;;;;;;7.30;4.95;;;9.20;59.00;;;;;;5209589;27;34415;-76
2021/12/25 09:54:47;;;;;;;6.60;4.80;;;9.20;59.00;;;;;;5190205;27;36211;-76
2021/12/25 09:57:14;;;;;;;5.30;4.30;;;9.30;59.10;;;;;;5209677;27;34184;-76
2021/12/25 09:59:41;;;;;;;7.07;5.07;;;9.30;58.90;;;;;;5189995;27;34229;-76
2021/12/25 10:02:13;;;;;;;6.75;4.40;;;9.30;58.80;;;;;;5190462;27;34178;-76
2021/12/25 10:04:47;;;;;;;5.75;4.32;;;9.30;58.80;;;;;;5172414;27;35639;-76
2021/12/25 10:07:30;;;;;;;6.43;4.40;;;9.40;58.90;;;;;;5172969;27;34303;-76
2021/12/25 10:10:07;;;;;;;5.80;4.30;;;9.40;59.10;;;;;;5172043;27;34416;-76
2021/12/25 10:12:40;;;;;;;5.57;4.13;;;9.40;58.90;;;;;;5182828;27;34199;-76
2021/12/25 10:15:09;;;;;;;6.35;4.40;;;9.50;59.00;;;;;;5173047;27;35620;-76
2021/12/25 10:17:44;;;;;;;7.30;4.57;;;9.50;59.00;;;;;;5172894;27;34257;-76
2021/12/25 10:20:13;;;;;;;5.65;4.53;;;9.60;59.00;;;;;;5173297;27;34374;-76
2021/12/25 10:22:56;;;;;;;5.68;3.85;;;9.60;58.90;;;;;;5172986;27;34493;-76
2021/12/25 10:25:23;;;;;;;6.55;3.97;;;9.70;59.00;;;;;;5185647;27;36014;-76
2021/12/25 10:27:54;;;;;;;5.07;4.32;;;9.70;58.90;;;;;;5183630;27;34420;-76
2021/12/25 10:30:21;;;;;;;5.28;4.20;;;9.80;58.80;;;;;;5172147;27;34331;-76
2021/12/25 10:32:48;;;;;;;6.65;4.97;;;9.70;58.80;;;;;;5209080;27;34266;-76
2021/12/25 10:35:25;;;;;;;7.28;4.60;;;9.80;58.80;;;;;;5189866;27;36011;-76
2021/12/25 10:37:52;;;;;;;7.50;5.07;;;9.80;58.80;;;;;;5180579;27;34275;-76
2021/12/25 10:40:27;;;;;;;7.00;5.13;;;9.70;58.90;;;;;;5186227;27;34260;-76
2021/12/25 10:42:56;;;;;;;6.18;4.45;;;9.70;58.90;;;;;;5190741;27;34426;-76
2021/12/25 10:45:26;;;;;;;7.80;5.03;;;9.80;59.10;;;;;;5151457;27;36569;-76
2021/12/25 10:48:04;;;;;;;6.68;4.85;;;9.80;59.10;;;;;;5203651;27;34286;-76
2021/12/25 10:50:41;;;;;;;6.85;4.93;;;9.80;59.10;;;;;;5207246;27;34186;-76
2021/12/25 10:53:24;;;;;;;9.63;5.15;;;9.80;59.10;;;;;;5189811;27;34231;-76
2021/12/25 10:55:52;;;;;;;5.50;4.22;;;9.80;59.10;;;;;;5208702;27;34314;-76
2021/12/25 10:58:20;;;;;;;6.05;4.70;;;9.80;59.10;;;;;;5171507;27;34253;-76
2021/12/25 11:00:54;;;;;;;5.80;4.75;;;9.80;59.10;;;;;;5208748;27;34228;-76
2021/12/25 11:03:28;;;;;;;5.88;4.60;;;9.80;59.10;;;;;;5189119;27;34395;-76
2021/12/25 11:05:59;;;;;;;6.05;4.65;;;9.80;59.20;;;;;;5207145;27;34345;-76
2021/12/25 11:08:25;;;;;;;6.28;4.68;;;9.80;59.20;;;;;;5198958;27;34239;-76
2021/12/25 11:10:55;;;;;;;6.25;4.68;;;9.80;59.10;;;;;;5189204;27;34212;-76
2021/12/25 11:13:25;;;;;;;7.50;4.85;;;9.80;59.20;;;;;;5146070;27;34397;-75
2021/12/25 11:16:01;;;;;;;5.88;4.88;;;9.80;59.20;;;;;;5150593;27;35610;-76
2021/12/25 11:18:27;;;;;;;6.35;4.93;;;9.80;59.20;;;;;;5138696;27;34252;-76
2021/12/25 11:20:54;;;;;;;7.10;4.95;;;9.80;59.20;;;;;;5189795;27;34112;-76
2021/12/25 11:23:21;;;;;;;6.60;5.10;;;9.80;59.20;;;;;;5199377;27;34251;-76
2021/12/25 11:25:47;;;;;;;7.30;4.70;;;9.80;59.20;;;;;;5207775;27;34349;-76
2021/12/25 11:28:18;;;;;;;6.10;4.57;;;9.80;59.20;;;;;;5200027;27;34131;-76
2021/12/25 11:30:50;;;;;;;5.78;4.40;;;9.80;59.20;;;;;;5189139;27;34128;-76
2021/12/25 11:33:16;;;;;;;6.55;5.10;;;9.80;60.00;;;;;;5189702;27;34290;-76
2021/12/25 11:35:42;;;;;;;7.45;5.68;;;9.80;59.30;;;;;;5188539;27;35532;-76
2021/12/25 11:38:10;;;;;;;6.88;5.47;;;9.80;59.30;;;;;;5176524;27;34168;-75
2021/12/25 11:40:41;;;;;;;7.25;5.32;;;9.80;59.30;;;;;;5181344;27;34061;-76
2021/12/25 11:43:07;;;;;;;6.88;5.18;;;9.90;59.30;;;;;;5151619;27;34139;-76
2021/12/25 11:45:39;;;;;;;7.35;5.22;;;9.90;59.30;;;;;;5167299;27;36027;-76
2021/12/25 11:48:16;;;;;;;7.15;4.78;;;10.00;59.20;;;;;;5150272;27;33797;-75
2021/12/25 11:50:46;;;;;;;6.15;4.60;;;10.10;59.30;;;;;;5150150;27;34332;-76
2021/12/25 11:59:12;;;;;;;6.88;4.78;;;10.20;59.00;;;;;;5170976;27;34085;-75
2021/12/25 12:01:46;;;;;;;6.45;5.35;;;10.30;59.10;;;;;;5168075;27;34209;-76
2021/12/25 12:04:18;;;;;;;6.82;4.80;;;10.30;59.10;;;;;;5150799;27;34102;-76
2021/12/25 12:07:08;;;;;;;5.97;4.90;;;10.30;59.10;;;;;;5150330;27;35567;-76
2021/12/25 12:09:52;;;;;;;6.65;4.95;;;10.30;59.10;;;;;;5138581;27;34062;-76
2021/12/25 12:12:23;;;;;;;7.57;5.70;;;10.40;59.00;;;;;;5132582;27;34258;-76
2021/12/25 12:15:06;;;;;;;10.45;6.88;;;10.40;59.00;;;;;;5148427;27;34139;-76
2021/12/25 12:17:33;;;;;;;7.63;5.57;;;10.40;59.00;;;;;;5142155;27;36563;-76
2021/12/25 12:20:03;;;;;;;7.25;5.50;;;10.40;58.90;;;;;;5171146;27;34241;-75
2021/12/25 12:22:51;;;;;;;7.20;5.32;;;10.40;58.90;;;;;;5190107;27;34446;-76
2021/12/25 12:25:30;;;;;;;8.45;5.47;;;10.40;58.90;;;;;;5156233;27;34503;-76
2021/12/25 12:28:00;;;;;;;8.75;6.15;;;10.40;58.90;;;;;;5172351;27;34197;-76
2021/12/25 12:30:50;;;;;;;7.22;5.75;;;10.40;58.90;;;;;;5189517;27;33887;-76
2021/12/25 12:33:33;;;;;;;7.50;5.85;;;10.40;59.00;;;;;;5170955;27;34235;-76
2021/12/25 12:36:00;;;;;;;7.53;5.78;;;10.30;59.70;;;;;;5153863;27;34279;-76
2021/12/25 12:38:44;;;;;;;10.05;6.80;;;10.30;59.10;;;;;;5170596;27;36283;-75
2021/12/25 12:41:32;;;;;;;9.55;6.82;;;10.30;59.20;;;;;;5189967;27;34330;-76
2021/12/25 12:44:03;;;;;;;8.55;6.93;;;10.30;59.20;;;;;;5137384;27;34502;-76
2021/12/25 12:46:58;;;;;;;9.00;6.60;;;10.30;59.20;;;;;;5154021;27;34293;-76
2021/12/25 12:49:28;;;;;;;10.80;6.65;;;10.30;59.20;;;;;;5170129;27;35533;-76
2021/12/25 12:52:30;;;;;;;6.68;5.88;;;10.30;59.20;;;;;;5189593;27;34192;-76
2021/12/25 12:55:01;;;;;;;7.80;5.93;;;10.30;59.20;;;;;;5156100;27;34394;-75
2021/12/25 12:57:34;;;;;;;6.20;5.35;;;10.30;59.30;;;;;;5170252;27;34211;-75
2021/12/25 13:00:09;;;;;;;8.23;6.38;;;10.20;59.20;;;;;;5152690;27;35764;-75
2021/12/25 13:02:42;;;;;;;6.82;4.93;;;10.20;59.20;;;;;;5153538;27;34192;-76
2021/12/25 13:05:10;;;;;;;7.93;5.28;;;10.20;59.20;;;;;;5170719;27;34527;-76
2021/12/25 13:07:38;;;;;;;8.48;4.28;;;10.20;59.30;;;;;;5189113;27;34273;-75
2021/12/25 13:12:57;;;;;;;5.55;3.30;;;10.20;59.20;;;;;;5157495;27;34102;-76
2021/12/25 13:15:27;;;;;;;3.20;2.60;;;10.10;59.00;;;;;;5152957;27;34375;-76
2021/12/25 13:17:57;;;;;;;2.95;2.60;;;10.10;59.00;;;;;;5170819;27;34391;-75
2021/12/25 13:20:47;;;;;;;5.45;2.53;;;10.10;58.90;;;;;;5152193;27;35480;-75
2021/12/25 13:23:17;;;;;;;4.07;2.55;;;10.10;58.90;;;;;;5188716;27;34265;-75
2021/12/25 13:25:46;;;;;;;1.92;1.70;;;10.00;58.90;;;;;;5169600;27;34260;-75
2021/12/25 13:28:13;;;;;;;2.72;1.80;;;10.00;58.80;;;;;;5152648;27;34163;-75
2021/12/25 13:30:43;;;;;;;2.65;1.98;;;10.00;58.70;;;;;;5169552;27;36817;-75
2021/12/25 13:33:13;;;;;;;2.25;1.65;;;10.00;58.60;;;;;;5153438;27;34043;-76
2021/12/25 13:35:41;;;;;;;1.70;1.60;;;9.90;58.60;;;;;;5152416;27;34148;-75
2021/12/25 13:38:08;;;;;;;1.75;1.65;;;9.90;58.50;;;;;;5169530;27;34181;-76
2021/12/25 13:40:37;;;;;;;1.48;1.38;;;9.90;58.60;;;;;;5188242;27;34298;-75
2021/12/25 13:43:07;;;;;;;2.00;1.50;;;9.80;58.60;;;;;;5170178;27;34110;-75
2021/12/25 13:45:34;;;;;;;3.90;1.70;;;9.80;58.60;;;;;;5169434;27;34129;-76
2021/12/25 13:48:00;;;;;;;1.38;1.10;;;9.80;58.60;;;;;;5189005;27;34348;-76
2021/12/25 13:50:27;;;;;;;1.10;1.00;;;9.80;58.60;;;;;;5188208;27;35322;-75
2021/12/25 13:52:59;;;;;;;1.30;1.20;;;9.70;58.40;;;;;;5170308;27;34430;-76
2021/12/25 13:55:29;;;;;;;2.25;0.95;;;9.70;58.30;;;;;;5169543;27;34157;-75
2021/12/25 13:57:59;;;;;;;1.77;0.90;;;9.60;58.40;;;;;;5170493;27;34224;-75
2021/12/25 14:00:30;;;;;;;2.65;0.93;;;9.60;58.30;;;;;;5152634;27;34426;-76
2021/12/25 14:02:59;;;;;;;0.75;0.75;;;9.50;58.20;;;;;;5187964;27;34133;-75
2021/12/25 14:05:29;;;;;;;0.93;0.90;;;9.50;58.20;;;;;;5169439;27;34216;-76
2021/12/25 14:07:56;;;;;;;0.60;0.60;;;9.40;58.00;;;;;;5135133;27;34201;-76
2021/12/25 14:10:25;;;;;;;1.00;0.80;;;9.40;58.00;;;;;;5169006;27;36032;-75
2021/12/25 14:12:54;;;;;;;0.57;0.57;;;9.30;58.10;;;;;;5169280;27;34231;-75
2021/12/25 14:15:23;;;;;;;2.47;1.00;;;9.30;58.00;;;;;;5169071;27;34124;-76
2021/12/25 14:17:50;;;;;;;2.47;0.80;;;9.20;58.00;;;;;;5152074;27;34203;-75
2021/12/25 14:20:29;;;;;;;0.80;0.65;;;9.20;58.00;;;;;;5168819;27;35649;-76